createdAt,value
2019-04-29T00:00:54.379Z,99654.58
2019-04-29T00:03:24.938Z,99656.33
2019-04-29T00:05:53.999Z,99655.48
2019-04-29T00:08:23.125Z,99654.67
2019-04-29T00:10:52.295Z,99661.38
2019-04-29T00:13:21.365Z,99658.77
2019-04-29T00:16:18.331Z,99659.50
2019-04-29T00:19:24.397Z,99651.97
2019-04-29T00:21:53.625Z,99647.29
2019-04-29T00:24:22.710Z,99645.74
2019-04-29T00:26:51.778Z,99644.52
2019-04-29T00:29:20.868Z,99644.58
2019-04-29T00:31:49.917Z,99648.08
2019-04-29T00:34:19.146Z,99649.02
2019-04-29T00:36:58.814Z,99643.21
2019-04-29T00:39:46.792Z,99645.10
2019-04-29T00:42:26.141Z,99650.36
2019-04-29T00:44:55.179Z,99645.83
2019-04-29T00:47:24.268Z,99652.27
2019-04-29T00:49:54.698Z,99656.66
2019-04-29T00:52:23.859Z,99654.22
2019-04-29T00:55:01.668Z,99654.73
2019-04-29T00:57:30.846Z,99651.47
2019-04-29T01:00:01.173Z,99648.02
2019-04-29T01:02:30.207Z,99657.10
2019-04-29T01:04:59.251Z,99661.53
2019-04-29T01:07:28.331Z,99658.84
2019-04-29T01:09:57.404Z,99663.89
2019-04-29T01:12:26.536Z,99661.10
2019-04-29T01:14:55.612Z,99665.75
2019-04-29T01:17:25.196Z,99663.50
2019-04-29T01:19:54.246Z,99657.05
2019-04-29T01:22:23.321Z,99666.77
2019-04-29T01:24:52.353Z,99664.23
2019-04-29T01:27:26.398Z,99668.70
2019-04-29T01:29:55.430Z,99669.05
2019-04-29T01:32:24.579Z,99668.23
2019-04-29T01:34:55.053Z,99671.26
2019-04-29T01:37:43.228Z,99677.80
2019-04-29T01:40:27.273Z,99681.69
2019-04-29T01:42:56.323Z,99676.72
2019-04-29T01:45:25.413Z,99682.36
2019-04-29T01:47:55.275Z,99682.66
2019-04-29T01:50:24.442Z,99676.64
2019-04-29T01:52:53.508Z,99680.03
2019-04-29T01:55:22.534Z,99684.98
2019-04-29T01:57:51.663Z,99683.78
2019-04-29T02:00:20.690Z,99685.85
2019-04-29T02:02:49.771Z,99691.20
2019-04-29T02:05:18.812Z,99686.22
2019-04-29T02:07:47.865Z,99689.37
2019-04-29T02:10:22.839Z,99687.03
2019-04-29T02:12:53.008Z,99691.58
2019-04-29T02:15:22.119Z,99687.33
2019-04-29T02:17:51.229Z,99692.53
2019-04-29T02:20:20.323Z,99691.62
2019-04-29T02:23:20.161Z,99689.39
2019-04-29T02:25:49.835Z,99693.80
2019-04-29T02:28:18.944Z,99689.55
2019-04-29T02:30:48.441Z,99693.05
2019-04-29T02:33:17.564Z,99688.72
2019-04-29T02:35:47.181Z,99686.09
2019-04-29T02:38:24.643Z,99692.58
2019-04-29T02:41:03.641Z,99683.16
2019-04-29T02:43:34.517Z,99687.19
2019-04-29T02:46:03.560Z,99692.34
2019-04-29T02:48:34.613Z,99691.38
2019-04-29T02:51:04.969Z,99695.45
2019-04-29T02:53:33.953Z,99695.72
2019-04-29T02:56:03.096Z,99688.98
2019-04-29T02:58:40.729Z,99687.19
2019-04-29T03:01:26.307Z,99690.42
2019-04-29T03:04:17.192Z,99687.89
2019-04-29T03:06:46.524Z,99687.45
2019-04-29T03:09:15.558Z,99683.27
2019-04-29T03:11:44.576Z,99683.16
2019-04-29T03:14:14.281Z,99681.74
2019-04-29T03:16:43.377Z,99684.23
2019-04-29T03:19:18.493Z,99690.48
2019-04-29T03:21:55.933Z,99680.31
2019-04-29T03:24:26.274Z,99689.75
2019-04-29T03:26:55.302Z,99693.55
2019-04-29T03:29:24.389Z,99688.19
2019-04-29T03:31:54.318Z,99694.02
2019-04-29T03:34:23.422Z,99690.60
2019-04-29T03:36:52.475Z,99689.92
2019-04-29T03:39:21.603Z,99691.59
2019-04-29T03:41:50.652Z,99690.30
2019-04-29T03:44:19.927Z,99692.75
2019-04-29T03:46:49.283Z,99695.97
2019-04-29T03:49:19.087Z,99700.66
2019-04-29T03:51:48.126Z,99701.63
2019-04-29T03:54:17.172Z,99696.84
2019-04-29T03:56:47.541Z,99701.08
2019-04-29T03:59:16.599Z,99697.81
2019-04-29T04:01:56.029Z,99707.76
2019-04-29T04:04:43.538Z,99702.16
2019-04-29T04:07:30.185Z,99702.70
2019-04-29T04:09:59.260Z,99697.66
2019-04-29T04:12:28.282Z,99698.44
2019-04-29T04:14:57.283Z,99708.43
2019-04-29T04:17:34.993Z,99704.06
2019-04-29T04:20:04.122Z,99708.58
2019-04-29T04:22:46.853Z,99713.86
2019-04-29T04:25:16.035Z,99707.38
2019-04-29T04:27:45.226Z,99717.08
2019-04-29T04:30:14.280Z,99719.77
2019-04-29T04:32:44.618Z,99720.22
2019-04-29T04:35:14.115Z,99720.23
2019-04-29T04:37:43.351Z,99722.11
2019-04-29T04:40:14.533Z,99726.78
2019-04-29T04:42:43.672Z,99730.96
2019-04-29T04:45:12.821Z,99723.41
2019-04-29T04:47:41.999Z,99723.88
2019-04-29T04:50:11.073Z,99723.53
2019-04-29T04:52:40.094Z,99723.69
2019-04-29T04:55:09.646Z,99549.83
2019-04-29T04:57:38.726Z,99730.37
2019-04-29T05:00:10.890Z,99736.19
2019-04-29T05:02:39.965Z,99734.04
2019-04-29T05:05:09.052Z,99728.41
2019-04-29T05:07:38.071Z,99733.17
2019-04-29T05:10:07.112Z,99734.50
2019-04-29T05:12:36.202Z,99738.12
2019-04-29T05:15:05.700Z,99739.98
2019-04-29T05:17:34.790Z,99752.15
2019-04-29T05:20:03.880Z,99753.06
2019-04-29T05:22:33.002Z,99752.66
2019-04-29T05:25:02.096Z,99752.55
2019-04-29T05:27:31.128Z,99754.59
2019-04-29T05:30:00.146Z,99754.03
2019-04-29T05:32:29.203Z,99745.67
2019-04-29T05:35:00.199Z,99752.43
2019-04-29T05:37:51.118Z,99755.61
2019-04-29T05:40:37.532Z,99756.79
2019-04-29T05:43:07.370Z,99761.06
2019-04-29T05:45:46.187Z,99763.94
2019-04-29T05:48:15.031Z,99765.94
2019-04-29T05:50:56.940Z,99764.20
2019-04-29T05:53:29.416Z,99771.94
2019-04-29T05:55:58.528Z,99766.64
2019-04-29T05:58:27.596Z,99775.17
2019-04-29T06:01:04.977Z,99780.74
2019-04-29T06:03:37.856Z,99785.08
2019-04-29T06:06:04.779Z,99790.08
2019-04-29T06:08:34.548Z,99793.39
2019-04-29T06:11:06.146Z,99787.62
2019-04-29T06:13:35.228Z,99791.20
2019-04-29T06:16:04.355Z,99788.13
2019-04-29T06:18:33.426Z,99792.77
2019-04-29T06:21:09.467Z,99789.31
2019-04-29T06:23:33.294Z,99798.88
2019-04-29T06:26:02.418Z,99799.45
2019-04-29T06:28:31.518Z,99800.32
2019-04-29T06:31:00.871Z,99806.81
2019-04-29T06:33:31.017Z,99801.59
2019-04-29T06:36:00.126Z,99808.83
2019-04-29T06:38:29.272Z,99804.61
2019-04-29T06:40:58.350Z,99801.27
2019-04-29T06:43:29.123Z,99805.16
2019-04-29T06:45:58.290Z,99807.45
2019-04-29T06:48:27.376Z,99806.31
2019-04-29T06:50:56.416Z,99805.12
2019-04-29T06:53:25.624Z,99804.72
2019-04-29T06:55:54.767Z,99807.80
2019-04-29T06:58:23.826Z,99811.67
2019-04-29T07:00:55.975Z,99815.19
2019-04-29T07:03:25.464Z,99810.15
2019-04-29T07:05:54.554Z,99807.26
2019-04-29T07:08:23.689Z,99808.19
2019-04-29T07:10:55.855Z,99815.94
2019-04-29T07:13:24.582Z,99812.78
2019-04-29T07:15:53.942Z,99804.98
2019-04-29T07:18:23.005Z,99807.25
2019-04-29T07:20:52.067Z,99804.12
2019-04-29T07:23:21.210Z,99812.80
2019-04-29T07:25:50.321Z,99818.39
2019-04-29T07:28:19.651Z,99816.11
2019-04-29T07:31:01.041Z,99816.80
2019-04-29T07:33:22.666Z,99823.02
2019-04-29T07:35:50.304Z,99813.97
2019-04-29T07:38:19.422Z,99817.32
2019-04-29T07:40:48.506Z,99820.11
2019-04-29T07:43:17.626Z,99822.03
2019-04-29T07:46:03.604Z,99815.41
2019-04-29T07:48:37.005Z,99820.85
2019-04-29T07:51:05.807Z,99818.20
2019-04-29T07:53:44.512Z,99817.13
2019-04-29T07:56:06.387Z,99813.73
2019-04-29T07:58:36.822Z,99815.80
2019-04-29T08:01:05.988Z,99811.35
2019-04-29T08:03:35.007Z,99816.47
2019-04-29T08:06:04.032Z,99811.09
2019-04-29T08:08:33.104Z,99808.42
2019-04-29T08:11:02.165Z,99808.15
2019-04-29T08:13:31.676Z,99806.67
2019-04-29T08:16:00.733Z,99805.62
2019-04-29T08:18:29.740Z,99797.41
2019-04-29T08:20:58.860Z,99800.44
2019-04-29T08:23:27.944Z,99800.30
2019-04-29T08:26:02.121Z,99790.88
2019-04-29T08:28:27.835Z,99801.88
2019-04-29T08:30:56.987Z,99803.97
2019-04-29T08:33:25.991Z,99797.84
2019-04-29T08:35:55.085Z,99789.94
2019-04-29T08:38:24.206Z,99798.12
2019-04-29T08:40:53.311Z,99795.44
2019-04-29T08:43:47.153Z,99792.26
2019-04-29T08:46:20.045Z,99787.98
2019-04-29T08:48:50.372Z,99783.48
2019-04-29T08:51:19.524Z,99783.58
2019-04-29T08:53:48.532Z,99783.88
2019-04-29T08:56:17.667Z,99784.13
2019-04-29T08:58:49.255Z,99779.96
2019-04-29T09:01:17.577Z,99773.77
2019-04-29T09:03:46.786Z,99768.61
2019-04-29T09:06:15.907Z,99767.95
2019-04-29T09:08:54.733Z,99766.30
2019-04-29T09:11:15.788Z,99761.08
2019-04-29T09:13:45.089Z,99769.88
2019-04-29T09:16:14.364Z,99765.21
2019-04-29T09:18:43.543Z,99755.59
2019-04-29T09:21:12.576Z,99751.84
2019-04-29T09:23:41.845Z,99754.89
2019-04-29T09:26:18.720Z,99750.13
2019-04-29T09:28:49.987Z,99753.48
2019-04-29T09:31:19.261Z,99751.80
2019-04-29T09:33:49.104Z,99749.62
2019-04-29T09:36:19.349Z,99753.89
2019-04-29T09:38:49.958Z,99749.16
2019-04-29T09:41:30.499Z,99752.19
2019-04-29T09:44:10.698Z,99744.35
2019-04-29T09:46:39.740Z,99746.88
2019-04-29T09:49:10.008Z,99736.96
2019-04-29T09:51:39.138Z,99741.70
2019-04-29T09:54:09.689Z,99737.78
2019-04-29T09:56:39.002Z,99732.55
2019-04-29T09:59:36.171Z,99730.75
2019-04-29T10:02:26.336Z,99727.25
2019-04-29T10:05:29.193Z,99718.03
2019-04-29T10:07:58.287Z,99721.16
2019-04-29T10:10:27.407Z,99717.98
2019-04-29T10:12:56.515Z,99714.30
2019-04-29T10:15:34.717Z,99712.15
2019-04-29T10:18:12.239Z,99709.28
2019-04-29T10:20:47.073Z,99704.75
2019-04-29T10:23:16.205Z,99689.67
2019-04-29T10:25:45.486Z,99687.33
2019-04-29T10:28:15.651Z,99701.47
2019-04-29T10:30:44.882Z,99698.07
2019-04-29T10:33:17.565Z,99687.07
2019-04-29T10:35:46.308Z,99685.70
2019-04-29T10:38:16.878Z,99685.28
2019-04-29T10:41:00.676Z,99686.45
2019-04-29T10:43:53.639Z,99683.60
2019-04-29T10:46:43.835Z,99681.95
2019-04-29T10:49:22.489Z,99668.69
2019-04-29T10:51:51.524Z,99667.47
2019-04-29T10:54:20.629Z,99670.04
2019-04-29T10:56:49.990Z,99659.80
2019-04-29T10:59:19.052Z,99662.28
2019-04-29T11:02:35.055Z,99667.50
2019-04-29T11:05:25.299Z,99657.75
2019-04-29T11:08:02.517Z,99661.75
2019-04-29T11:10:31.733Z,99658.64
2019-04-29T11:13:00.870Z,99652.02
2019-04-29T11:15:33.720Z,99659.29
2019-04-29T11:18:03.995Z,99652.05
2019-04-29T11:20:34.917Z,99646.82
2019-04-29T11:23:19.360Z,99650.27
2019-04-29T11:25:58.469Z,99650.95
2019-04-29T11:28:28.017Z,99646.33
2019-04-29T11:30:58.416Z,99640.11
2019-04-29T11:33:49.281Z,99629.83
2019-04-29T11:36:20.138Z,99631.66
2019-04-29T11:38:51.010Z,99632.71
2019-04-29T11:41:21.499Z,99634.50
2019-04-29T11:43:51.262Z,99551.64
2019-04-29T11:46:22.827Z,99625.97
2019-04-29T11:48:53.594Z,99619.64
2019-04-29T11:52:07.721Z,99616.52
2019-04-29T11:54:18.015Z,99619.45
2019-04-29T11:56:45.347Z,99620.40
2019-04-29T11:59:33.705Z,99617.61
2019-04-29T12:02:24.283Z,99605.58
2019-04-29T12:04:55.214Z,99608.36
2019-04-29T12:07:31.864Z,99604.05
2019-04-29T12:09:55.102Z,99589.13
2019-04-29T12:12:24.495Z,99592.83
2019-04-29T12:15:15.502Z,99592.16
2019-04-29T12:18:03.570Z,99593.75
2019-04-29T12:20:51.595Z,99585.92
2019-04-29T12:23:20.669Z,99581.98
2019-04-29T12:25:50.651Z,99582.77
2019-04-29T12:28:19.837Z,99577.34
2019-04-29T12:30:50.705Z,99572.02
2019-04-29T12:33:32.419Z,99567.33
2019-04-29T12:36:05.203Z,99562.81
2019-04-29T12:39:11.127Z,99564.97
2019-04-29T12:42:06.446Z,99561.75
2019-04-29T12:44:44.456Z,99566.49
2019-04-29T12:47:26.188Z,99561.91
2019-04-29T12:49:49.820Z,99574.70
2019-04-29T12:52:18.983Z,99566.34
2019-04-29T12:54:48.002Z,99569.00
2019-04-29T12:57:18.978Z,99559.61
2019-04-29T12:59:48.004Z,99565.00
2019-04-29T13:02:51.271Z,99567.27
2019-04-29T13:05:42.293Z,99562.77
2019-04-29T13:08:17.669Z,99564.92
2019-04-29T13:10:54.873Z,99551.64
2019-04-29T13:13:23.923Z,99554.19
2019-04-29T13:16:22.076Z,99554.30
2019-04-29T13:19:15.981Z,99548.22
2019-04-29T13:21:39.395Z,99548.94
2019-04-29T13:24:22.114Z,99545.81
2019-04-29T13:26:42.512Z,99551.95
2019-04-29T13:29:10.258Z,99550.00
2019-04-29T13:31:40.749Z,99545.66
2019-04-29T13:34:23.655Z,99544.84
2019-04-29T13:36:42.553Z,99543.67
2019-04-29T13:39:11.640Z,99549.48
2019-04-29T13:41:56.144Z,99540.99
2019-04-29T13:44:12.545Z,99543.61
2019-04-29T13:47:12.676Z,99538.97
2019-04-29T13:49:49.086Z,99542.70
2019-04-29T13:52:16.819Z,99532.88
2019-04-29T13:54:45.879Z,99542.10
2019-04-29T13:57:16.026Z,99534.61
2019-04-29T14:00:11.672Z,99535.92
2019-04-29T14:02:58.440Z,99541.88
2019-04-29T14:05:16.199Z,99528.50
2019-04-29T14:07:48.660Z,99529.77
2019-04-29T14:10:16.735Z,99528.98
2019-04-29T14:12:49.372Z,99529.41
2019-04-29T14:15:17.143Z,99528.78
2019-04-29T14:17:47.413Z,99529.34
2019-04-29T14:20:17.499Z,99521.33
2019-04-29T14:22:46.589Z,99526.57
2019-04-29T14:25:15.625Z,99527.06
2019-04-29T14:27:44.696Z,99530.01
2019-04-29T14:30:20.582Z,99527.61
2019-04-29T14:32:52.603Z,99522.59
2019-04-29T14:35:36.659Z,99528.34
2019-04-29T14:38:06.274Z,99518.37
2019-04-29T14:40:39.108Z,99522.30
2019-04-29T14:43:31.340Z,99523.08
2019-04-29T14:46:16.229Z,99520.66
2019-04-29T14:48:49.294Z,99517.28
2019-04-29T14:51:18.365Z,99518.26
2019-04-29T14:53:56.319Z,99513.78
2019-04-29T14:56:18.223Z,99522.07
2019-04-29T14:58:47.445Z,99516.95
2019-04-29T15:01:43.784Z,99512.05
2019-04-29T15:04:18.606Z,99509.85
2019-04-29T15:06:45.481Z,99506.73
2019-04-29T15:09:18.161Z,99505.91
2019-04-29T15:12:04.925Z,99502.27
2019-04-29T15:14:40.634Z,99502.12
2019-04-29T15:17:17.950Z,99502.49
2019-04-29T15:20:02.854Z,99501.80
2019-04-29T15:22:34.974Z,99501.34
2019-04-29T15:25:04.014Z,99495.11
2019-04-29T15:27:34.502Z,99495.08
2019-04-29T15:30:03.940Z,99498.08
2019-04-29T15:32:33.090Z,99501.09
2019-04-29T15:35:02.608Z,99493.26
2019-04-29T15:37:31.652Z,99496.36
2019-04-29T15:40:00.822Z,99487.80
2019-04-29T15:42:30.021Z,99494.47
2019-04-29T15:44:59.207Z,99489.53
2019-04-29T15:47:31.346Z,99496.71
2019-04-29T15:50:00.700Z,99492.18
2019-04-29T15:52:30.009Z,99489.32
2019-04-29T15:54:59.080Z,99493.39
2019-04-29T15:57:28.215Z,99493.16
2019-04-29T15:59:59.935Z,99490.54
2019-04-29T16:02:28.057Z,99488.59
2019-04-29T16:05:04.687Z,99491.46
2019-04-29T16:07:46.709Z,99490.44
2019-04-29T16:10:36.499Z,99490.27
2019-04-29T16:13:08.606Z,99488.55
2019-04-29T16:15:37.787Z,99488.93
2019-04-29T16:18:10.685Z,99492.18
2019-04-29T16:20:37.926Z,99491.81
2019-04-29T16:23:06.979Z,99486.08
2019-04-29T16:25:40.492Z,99483.25
2019-04-29T16:28:07.008Z,99487.80
2019-04-29T16:30:36.066Z,99503.09
2019-04-29T16:33:12.970Z,99496.81
2019-04-29T16:35:37.473Z,99507.21
2019-04-29T16:38:11.510Z,99537.41
2019-04-29T16:40:41.490Z,99548.72
2019-04-29T16:43:27.951Z,99551.91
2019-04-29T16:46:08.813Z,99554.36
2019-04-29T16:48:37.987Z,99554.13
2019-04-29T16:51:14.629Z,99548.03
2019-04-29T16:53:37.995Z,99543.17
2019-04-29T16:56:07.110Z,99544.72
2019-04-29T16:58:36.186Z,99545.55
2019-04-29T17:01:05.346Z,99538.27
2019-04-29T17:03:34.439Z,99538.56
2019-04-29T17:06:03.654Z,99545.27
2019-04-29T17:08:50.714Z,99532.69
2019-04-29T17:11:21.155Z,99536.53
2019-04-29T17:13:50.240Z,99538.08
2019-04-29T17:16:20.942Z,99538.62
2019-04-29T17:18:50.061Z,99532.70
2019-04-29T17:21:21.344Z,99531.24
2019-04-29T17:23:50.607Z,99530.42
2019-04-29T17:26:21.398Z,99523.77
2019-04-29T17:29:11.913Z,99522.88
2019-04-29T17:31:55.791Z,99528.62
2019-04-29T17:34:54.724Z,99523.27
2019-04-29T17:36:55.243Z,99524.95
2019-04-29T17:39:24.832Z,99531.41
2019-04-29T17:41:53.875Z,99532.62
2019-04-29T17:44:40.276Z,99529.11
2019-04-29T17:47:17.823Z,99528.41
2019-04-29T17:49:56.622Z,99527.13
2019-04-29T17:52:28.202Z,99527.72
2019-04-29T17:55:21.131Z,99517.67
2019-04-29T17:57:58.235Z,99515.16
2019-04-29T18:00:44.377Z,99518.31
2019-04-29T18:03:41.358Z,99518.17
2019-04-29T18:06:24.061Z,99512.43
2019-04-29T18:09:09.748Z,99513.78
2019-04-29T18:11:50.421Z,99516.40
2019-04-29T18:14:09.708Z,99512.35
2019-04-29T18:16:43.752Z,99508.84
2019-04-29T18:19:18.995Z,99510.12
2019-04-29T18:22:09.953Z,99516.43
2019-04-29T18:24:56.728Z,99520.77
2019-04-29T18:27:26.290Z,99526.11
2019-04-29T18:29:55.312Z,99518.63
2019-04-29T18:32:35.054Z,99527.38
2019-04-29T18:34:56.704Z,99528.17
2019-04-29T18:37:25.820Z,99528.00
2019-04-29T18:39:57.730Z,99526.90
2019-04-29T18:42:28.679Z,99525.72
2019-04-29T18:45:00.322Z,99531.64
2019-04-29T18:47:34.815Z,99532.41
2019-04-29T18:49:59.853Z,99543.31
2019-04-29T18:52:30.160Z,99542.67
2019-04-29T18:54:59.162Z,99546.08
2019-04-29T18:57:30.892Z,99544.13
2019-04-29T18:59:59.610Z,99544.40
2019-04-29T19:02:32.093Z,99535.87
2019-04-29T19:05:32.457Z,99543.60
2019-04-29T19:08:12.237Z,99538.87
2019-04-29T19:10:34.933Z,99546.84
2019-04-29T19:13:05.358Z,99541.39
2019-04-29T19:15:35.411Z,99533.83
2019-04-29T19:18:07.593Z,99535.27
2019-04-29T19:20:37.696Z,99539.69
2019-04-29T19:23:10.055Z,99549.84
2019-04-29T19:25:41.507Z,99539.33
2019-04-29T19:28:14.963Z,99548.97
2019-04-29T19:30:42.434Z,99545.89
2019-04-29T19:33:12.537Z,99547.23
2019-04-29T19:35:42.107Z,99551.93
2019-04-29T19:38:13.441Z,99549.49
2019-04-29T19:40:43.563Z,99531.29
2019-04-29T19:43:15.320Z,99527.72
2019-04-29T19:45:44.635Z,99522.41
2019-04-29T19:48:16.122Z,99530.56
2019-04-29T19:50:50.122Z,99534.39
2019-04-29T19:53:17.360Z,99540.88
2019-04-29T19:55:46.453Z,99543.96
2019-04-29T19:58:15.880Z,99529.98
2019-04-29T20:00:47.331Z,99523.97
2019-04-29T20:03:21.219Z,99522.92
2019-04-29T20:06:01.777Z,99524.17
2019-04-29T20:08:46.296Z,99531.27
2019-04-29T20:11:00.834Z,99535.41
2019-04-29T20:13:31.292Z,99537.28
2019-04-29T20:16:24.864Z,99528.03
2019-04-29T20:19:12.281Z,99533.07
2019-04-29T20:21:36.404Z,99528.23
2019-04-29T20:24:09.854Z,99529.80
2019-04-29T20:26:37.342Z,99522.95
2019-04-29T20:29:07.965Z,99521.67
2019-04-29T20:31:39.135Z,99524.28
2019-04-29T20:34:09.665Z,99523.97
2019-04-29T20:36:42.755Z,99524.83
2019-04-29T20:39:15.189Z,99521.36
2019-04-29T20:41:44.593Z,99519.30
2019-04-29T20:44:16.270Z,99526.28
2019-04-29T20:47:12.369Z,99527.25
2019-04-29T20:49:20.087Z,99533.22
2019-04-29T20:51:52.738Z,99534.91
2019-04-29T20:54:26.125Z,99529.96
2019-04-29T20:57:03.027Z,99531.23
2019-04-29T20:59:26.946Z,99531.54
2019-04-29T21:02:11.217Z,99533.45
2019-04-29T21:04:45.733Z,99533.67
2019-04-29T21:07:07.021Z,99521.89
2019-04-29T21:09:36.243Z,99518.25
2019-04-29T21:12:22.415Z,99509.58
2019-04-29T21:14:56.910Z,99509.45
2019-04-29T21:17:30.840Z,99496.61
2019-04-29T21:19:56.628Z,99506.99
2019-04-29T21:22:26.064Z,99506.76
2019-04-29T21:24:55.740Z,99500.86
2019-04-29T21:27:26.014Z,99512.34
2019-04-29T21:29:55.492Z,99506.02
2019-04-29T21:32:25.799Z,99514.91
2019-04-29T21:35:05.730Z,99511.23
2019-04-29T21:37:46.631Z,99517.33
2019-04-29T21:40:24.191Z,99515.84
2019-04-29T21:42:55.877Z,99511.96
2019-04-29T21:45:25.743Z,99511.39
2019-04-29T21:47:54.903Z,99512.14
2019-04-29T21:50:29.103Z,99514.39
2019-04-29T21:53:01.694Z,99511.85
2019-04-29T21:55:29.364Z,99505.63
2019-04-29T21:57:58.811Z,99504.64
2019-04-29T22:00:28.714Z,99507.50
2019-04-29T22:02:59.061Z,99498.99
2019-04-29T22:05:28.752Z,99503.59
2019-04-29T22:07:58.044Z,99506.21
2019-04-29T22:10:28.937Z,99505.23
2019-04-29T22:13:01.946Z,99506.33
2019-04-29T22:15:32.413Z,99501.49
2019-04-29T22:18:01.640Z,99498.56
2019-04-29T22:20:35.582Z,99501.49
2019-04-29T22:23:08.337Z,99500.63
2019-04-29T22:25:36.678Z,99483.50
2019-04-29T22:28:06.433Z,99488.73
2019-04-29T22:30:36.665Z,99484.28
2019-04-29T22:33:06.409Z,99481.59
2019-04-29T22:35:39.421Z,99495.39
2019-04-29T22:38:07.826Z,99498.28
2019-04-29T22:40:41.066Z,99495.47
2019-04-29T22:43:45.794Z,99499.91
2019-04-29T22:46:17.187Z,99492.56
2019-04-29T22:48:48.695Z,99485.43
2019-04-29T22:51:18.996Z,99479.00
2019-04-29T22:53:48.398Z,99486.27
2019-04-29T22:56:17.480Z,99491.89
2019-04-29T22:58:47.470Z,99494.94
2019-04-29T23:01:17.751Z,99491.94
2019-04-29T23:03:47.438Z,99493.45
2019-04-29T23:06:16.592Z,99494.12
2019-04-29T23:08:46.763Z,99496.49
2019-04-29T23:11:15.873Z,99494.49
2019-04-29T23:13:45.884Z,99491.61
2019-04-29T23:16:17.027Z,99485.78
2019-04-29T23:18:46.151Z,99490.32
2019-04-29T23:21:46.788Z,99485.11
2019-04-29T23:24:26.187Z,99500.88
2019-04-29T23:26:55.292Z,99483.09
2019-04-29T23:29:25.507Z,99479.34
2019-04-29T23:31:59.420Z,99476.51
2019-04-29T23:34:29.147Z,99478.98
2019-04-29T23:36:58.186Z,99476.33
2019-04-29T23:39:27.329Z,99483.27
2019-04-29T23:41:56.405Z,99477.04
2019-04-29T23:44:25.416Z,99481.70
2019-04-29T23:46:54.546Z,99480.06
2019-04-29T23:49:25.113Z,99475.08
2019-04-29T23:51:54.233Z,99473.11
2019-04-29T23:54:25.204Z,99475.48
2019-04-29T23:57:09.774Z,99476.53
2019-04-29T23:59:40.695Z,99470.57
